Wood River Junction, Rhode Island
Current Conditions -  °F | °C
As of 12:53 PM on Thursday 29 Jan 2015 (Local Time) from KWST Reporting Station
Clear Clear  
Wind Chill: 24°   Ceiling: Unl
Heat Index: 30°   Visibility: 10mi
Dew Point: 12°   Wind: 6mph
Humidity: 47%   Direction: 140°SE
Pressure: 30.25"   Gusts: NA
Location:  41.44°N, 71.69°W
Report Text: KWST 291753Z AUTO 14005KT 10SM CLR M01/M11 A3025 RMK AO2 SLP244 T10111111 11006 21183 58026
Loading
Personal Weather Stations






























Interactive Weather Map New forecast layout! Learn more

10-Day Weather Forecast

Advertisements
Track Severe Weather on mobile